METAR Data
IDs: Format: Raw Decoded Include TAF

Data at: 2138 UTC 22 Sep 2020

KCWF 222055Z 13017G21KT 10SM BKN018 BKN034 28/24 A2988
KCWF 221955Z 12015G19KT 10SM OVC014 27/25 A2989 RMK PRESFR
KCWF 221847Z 11008KT 10SM OVC007 26/24 A2993
KCWF 221751Z 09009KT 10SM BR OVC007 24/23 A2995 RMK RAE34
KCWF 221655Z 10015KT 7SM -RABR OVC009 24/23 A2997
KCWF 221555Z 08011KT 5SM -RABR OVC009 23/22 A2998
KCWF 221532Z COR 08013G18KT 2SM RABR OVC010 23/22 A2998 RMK RAB30
KCWF 221455Z 09012KT 10SM OVC011 23/22 A2998 RMK RAE22
KCWF 221350Z 06011KT 6SM -RABR OVC013 21/20 A2997
KCWF 221245Z 06011G15KT 3SM -RABR BKN007 OVC015 21/20 A2997
KCWF 221145Z 07011G16KT 7SM -RA OVC011 21/20 A2996 RMK RAB33
KCWF 221100Z 07011KT 10SM OVC011 21/20 A2996
KCWF 221035Z AUTO 07010KT 7SM -RA OVC011 21/20 A2997 RMK AO2 P0003 T02100201
KCWF 221015Z AUTO 07009KT 10SM OVC009 21/20 A2996 RMK AO2 T02120202
KCWF 220955Z AUTO 07012KT 10SM OVC009 21/20 A2996 RMK AO2 T02120203
KCWF 220935Z AUTO 07010KT 10SM OVC009 21/20 A2996 RMK AO2 T02120203
KCWF 220915Z AUTO 07011G17KT 7SM -RA BR OVC011 21/20 A2996 RMK AO2 T02140204
KCWF 220855Z AUTO 07010KT 10SM OVC011 22/20 A2996 RMK AO2 P0001 T02160205 60001
KCWF 220835Z AUTO 08011KT 10SM -DZ OVC011 22/21 A2997 RMK AO2 P0001 T02160206
KCWF 220815Z AUTO 08012G16KT 10SM OVC011 22/21 A2997 RMK AO2 T02160205
KCWF 220755Z AUTO 07011G16KT 7SM -RA BR OVC011 21/21 A2997 RMK AO2 T02150206
KCWF 220735Z AUTO 07012KT 10SM OVC011 22/21 A2997 RMK AO2 T02170207
KCWF 220715Z AUTO 08013G20KT 7SM OVC011 22/21 A2997 RMK AO2 T02180208
KCWF 220655Z AUTO 08012KT 10SM OVC011 22/21 A2998 RMK AO2 LTG DSNT SW T02200208
KCWF 220635Z AUTO 08014G19KT 10SM OVC011 22/21 A2999 RMK AO2 T02220209
KCWF 220615Z AUTO 08014G21KT 10SM -DZ OVC011 22/21 A2999 RMK AO2 T02200209
KCWF 220555Z AUTO 09012KT 10SM OVC011 22/21 A2999 RMK AO2 T02210208 10222 20217 60004
KCWF 220535Z AUTO 09011KT 10SM OVC011 22/21 A2999 RMK AO2 T02220209
KCWF 220515Z AUTO 07011G18KT 10SM OVC011 22/21 A3000 RMK AO2 T02210208
KCWF 220455Z AUTO 07013G20KT 10SM OVC013 22/21 A3000 RMK AO2 T02220208
KCWF 220435Z AUTO 08013G21KT 10SM OVC013 22/21 A3000 RMK AO2 T02210208
KCWF 220415Z AUTO 08012KT 10SM OVC011 22/21 A3001 RMK AO2 T02210209
KCWF 220355Z AUTO 08011KT 10SM OVC011 22/21 A3001 RMK AO2 T02200208
KCWF 220335Z AUTO 07009KT 10SM OVC011 22/21 A3000 RMK AO2 T02190209
KCWF 220315Z AUTO 07011KT 10SM OVC011 22/21 A3000 RMK AO2 T02190209
KCWF 220250Z 07012KT 5SM -RABR OVC007 22/21 A3000 RMK RAB05 LAST
KCWF 220155Z 08015G18KT 10SM OVC009 22/21 A2999 RMK RAE30
KCWF 220055Z 07013KT 5SM -RABR OVC007 22/21 A2998
KCWF 212350Z 08013G18KT 5SM -RABR OVC007 22/21 A2998
KCWF 212250Z 07012KT 5SM -RABR OVC012 23/22 A2996
KCWF 212155Z 09014G21KT 7SM -RA OVC012 24/22 A2995 RMK RAB30
KCWF 212055Z 09016G21KT 10SM OVC009 24/22 A2994
KCWF 211958Z 09017G23KT 10SM OVC008 24/22 A2995
KCWF 211851Z 10019G27KT 10SM OVC008 24/22 A2996
KCWF 211755Z 09016G25KT 10SM OVC004 23/22 A2999 RMK RAE40
KCWF 211655Z 09017G21KT 7SM -RA OVC008 22/21 A3000 RMK RAB35
KCWF 211555Z 06010KT 10SM OVC008 21/20 A3000
KCWF 211455Z 06013G18KT 10SM OVC007 21/19 A2999
KCWF 211355Z 05015G22KT 10SM OVC010 21/19 A2999
KCWF 211347Z 05015G22KT 10SM OVC010 21/19 A2999
KCWF 211250Z 05013G18KT 10SM OVC009 21/19 A2998
KCWF 211150Z 04012G17KT 10SM BKN008 OVC016 20/19 A2996
KCWF 211100Z 04016KT 7SM OVC010 20/19 A2995
KCWF 211035Z AUTO 06014G17KT 10SM OVC010 20/19 A2995 RMK AO2 T02010189
KCWF 211015Z AUTO 06012G19KT 10SM OVC010 20/19 A2995 RMK AO2 T02010190
KCWF 210955Z AUTO 05013G19KT 10SM OVC010 20/19 A2994 RMK AO2 LTG DSNT SE P0001 T02010190